Time;durP1;ratioP1;P1;durP2;ratioP2;P2;SDS_P1;SDS_P2;PMS_P1;PMS_P2;Temp;Humidity;BMP_temperature;BMP_pressure;BME280_temperature;BME280_humidity;BME280_pressure;Samples;Min_cycle;Max_cycle;Signal;HPM_P1;HPM_P2
2022/08/19 00:00:08;;;;;;;17.45;2.47;;;;;;;15.00;62.95;100460.63;5069522;28;20059;-42
2022/08/19 00:02:35;;;;;;;14.93;2.90;;;;;;;14.98;62.94;100463.03;5069592;28;20053;-41
2022/08/19 00:05:03;;;;;;;11.88;4.05;;;;;;;14.96;63.07;100464.56;5069537;28;20102;-41
2022/08/19 00:07:30;;;;;;;17.23;3.40;;;;;;;14.93;63.31;100465.34;5068170;28;20049;-44
2022/08/19 00:09:57;;;;;;;15.52;3.38;;;;;;;14.86;63.44;100466.03;5068493;28;20486;-41
2022/08/19 00:12:24;;;;;;;16.13;3.53;;;;;;;14.85;63.39;100458.84;5069210;28;20117;-41
2022/08/19 00:14:52;;;;;;;16.80;3.28;;;;;;;14.82;63.59;100465.22;5069233;28;20056;-41
2022/08/19 00:17:20;;;;;;;12.85;2.78;;;;;;;14.82;63.60;100470.78;5069053;28;20049;-41
2022/08/19 00:19:47;;;;;;;18.40;3.00;;;;;;;14.83;63.74;100477.16;5068927;28;20082;-41
2022/08/19 00:22:14;;;;;;;17.38;3.10;;;;;;;14.77;63.81;100476.72;5067699;28;20131;-42
2022/08/19 00:24:43;;;;;;;12.00;3.38;;;;;;;14.76;64.09;100474.28;5067803;28;20056;-42
2022/08/19 00:27:16;;;;;;;9.77;2.78;;;;;;;14.75;63.97;100479.03;5065080;28;20090;-41
2022/08/19 00:29:52;;;;;;;14.63;2.83;;;;;;;14.74;64.17;100482.22;5066959;28;20098;-41
2022/08/19 00:32:20;;;;;;;14.90;3.15;;;;;;;14.72;64.44;100488.16;5065984;28;20068;-41
2022/08/19 00:34:47;;;;;;;10.98;3.65;;;;;;;14.71;64.37;100486.56;5067176;28;20040;-41
2022/08/19 00:37:14;;;;;;;21.13;2.88;;;;;;;14.65;64.80;100485.28;5066220;28;20136;-41
2022/08/19 00:39:40;;;;;;;16.15;2.63;;;;;;;14.64;64.93;100486.47;5067796;28;20106;-41
2022/08/19 00:42:07;;;;;;;13.27;2.65;;;;;;;14.65;64.94;100488.09;5055111;28;20044;-47
2022/08/19 00:44:35;;;;;;;13.75;3.92;;;;;;;14.63;65.00;100484.88;5044375;28;20040;-41
2022/08/19 00:47:02;;;;;;;14.70;3.67;;;;;;;14.60;65.19;100477.28;5066520;28;20044;-43
2022/08/19 00:49:56;;;;;;;12.07;2.78;;;;;;;14.56;65.54;100477.22;5066940;28;20044;-41
2022/08/19 00:52:33;;;;;;;20.67;3.53;;;;;;;14.55;65.79;100480.41;5061390;28;20083;-44
2022/08/19 00:55:02;;;;;;;18.10;3.13;;;;;;;14.50;65.84;100486.31;5064376;28;20551;-41
2022/08/19 00:57:40;;;;;;;14.65;2.83;;;;;;;14.47;66.12;100475.91;5064131;28;20102;-41
2022/08/19 01:00:11;;;;;;;19.23;3.70;;;;;;;14.42;66.37;100484.59;5065705;28;20041;-43
2022/08/19 01:02:39;;;;;;;11.77;3.05;;;;;;;14.41;66.47;100480.19;5066407;28;20113;-42
2022/08/19 01:05:11;;;;;;;17.15;3.90;;;;;;;14.40;66.73;100482.19;5063385;28;20037;-41
2022/08/19 01:07:40;;;;;;;9.43;2.20;;;;;;;14.34;66.89;100474.53;5065302;28;20048;-42
2022/08/19 01:10:16;;;;;;;16.75;4.45;;;;;;;14.33;67.00;100470.13;5065675;28;20462;-42
2022/08/19 01:12:43;;;;;;;14.15;4.05;;;;;;;14.32;66.93;100474.13;5066829;28;20072;-42
2022/08/19 01:15:13;;;;;;;12.75;2.40;;;;;;;14.30;67.18;100479.22;5059131;28;20119;-41
2022/08/19 01:17:42;;;;;;;11.68;3.58;;;;;;;14.28;67.21;100473.22;5056602;28;20593;-41
2022/08/19 01:20:16;;;;;;;18.40;3.17;;;;;;;14.25;67.53;100482.31;5047597;28;20068;-41
2022/08/19 01:22:50;;;;;;;16.55;3.40;;;;;;;14.25;67.52;100479.53;5064276;28;20036;-41
2022/08/19 01:25:21;;;;;;;19.63;4.78;;;;;;;14.24;67.66;100483.53;5066107;28;20402;-41
2022/08/19 01:27:51;;;;;;;20.83;4.55;;;;;;;14.26;67.76;100476.41;5064145;28;20044;-41
2022/08/19 01:30:24;;;;;;;21.67;4.40;;;;;;;14.28;68.00;100474.03;5064253;28;20051;-41
2022/08/19 01:32:52;;;;;;;15.75;2.83;;;;;;;14.31;67.88;100489.19;5066063;28;20063;-46
2022/08/19 01:35:23;;;;;;;20.42;4.45;;;;;;;14.34;68.02;100482.91;5065610;28;20126;-45
2022/08/19 01:37:54;;;;;;;18.83;4.22;;;;;;;14.39;68.14;100493.72;5065266;28;20417;-43
2022/08/19 01:40:24;;;;;;;15.45;3.33;;;;;;;14.40;68.21;100473.81;5054663;28;20089;-42
2022/08/19 01:42:52;;;;;;;11.88;3.28;;;;;;;14.37;68.25;100482.97;5064999;28;20071;-42
2022/08/19 01:45:22;;;;;;;15.15;2.97;;;;;;;14.33;68.33;100479.31;5064883;28;20040;-42
2022/08/19 01:47:49;;;;;;;17.40;3.35;;;;;;;14.33;68.42;100486.84;5064957;28;20040;-42
2022/08/19 01:50:27;;;;;;;18.40;3.40;;;;;;;14.29;68.50;100474.84;5065788;28;20087;-42
2022/08/19 01:52:54;;;;;;;21.83;4.55;;;;;;;14.29;68.58;100491.56;5064163;28;20032;-46
2022/08/19 01:55:33;;;;;;;18.88;3.33;;;;;;;14.28;68.64;100496.31;5062450;28;20483;-42
2022/08/19 01:58:02;;;;;;;22.38;4.20;;;;;;;14.29;68.61;100486.78;5064071;28;20090;-42
2022/08/19 02:00:31;;;;;;;15.57;3.35;;;;;;;14.29;68.60;100488.75;5063064;28;20443;-42
2022/08/19 02:03:00;;;;;;;30.95;6.75;;;;;;;14.29;69.00;100492.34;5065680;28;20049;-41
2022/08/19 02:05:29;;;;;;;15.45;3.00;;;;;;;14.33;69.09;100492.41;5046512;28;20068;-42
2022/08/19 02:07:56;;;;;;;14.32;4.28;;;;;;;14.37;68.71;100487.72;5064626;28;20068;-45
2022/08/19 02:10:23;;;;;;;19.70;4.07;;;;;;;14.37;68.99;100482.97;5060271;28;20059;-42
2022/08/19 02:12:50;;;;;;;17.27;4.07;;;;;;;14.35;69.30;100490.09;5063371;28;20146;-42
2022/08/19 02:15:19;;;;;;;13.30;3.10;;;;;;;14.38;69.08;100489.31;5064182;28;20040;-42
2022/08/19 02:17:47;;;;;;;24.92;6.03;;;;;;;14.37;69.19;100504.44;5058444;28;20041;-42
2022/08/19 02:20:15;;;;;;;17.55;4.15;;;;;;;14.35;69.36;100484.50;5064666;28;20474;-47
2022/08/19 02:22:42;;;;;;;24.77;3.50;;;;;;;14.35;69.30;100490.09;5062159;28;20087;-42
2022/08/19 02:25:11;;;;;;;23.48;4.13;;;;;;;14.33;69.26;100493.22;5062582;28;20441;-42
2022/08/19 02:27:40;;;;;;;12.60;2.70;;;;;;;14.29;69.34;100492.34;5063329;28;20059;-42
2022/08/19 02:30:09;;;;;;;16.13;3.30;;;;;;;14.25;69.30;100490.69;5063561;28;20045;-50
2022/08/19 02:32:40;;;;;;;19.38;2.85;;;;;;;14.18;69.25;100485.03;5055299;28;20389;-42
2022/08/19 02:35:12;;;;;;;26.20;4.35;;;;;;;14.13;69.49;100488.13;5065693;28;20059;-42
2022/08/19 02:40:26;;;;;;;26.20;4.00;;;;;;;13.99;69.92;100483.16;5063080;28;20087;-42
2022/08/19 02:42:53;;;;;;;20.17;4.72;;;;;;;13.97;69.92;100485.50;5060398;28;20052;-42
2022/08/19 02:45:20;;;;;;;23.15;4.50;;;;;;;13.91;70.03;100476.66;5061768;28;20052;-42
2022/08/19 02:47:47;;;;;;;15.40;2.70;;;;;;;13.86;70.35;100468.66;5050056;28;20517;-42
2022/08/19 02:50:14;;;;;;;16.42;3.90;;;;;;;13.81;70.65;100471.75;5065308;28;20049;-43
2022/08/19 02:52:41;;;;;;;19.05;3.92;;;;;;;13.76;70.53;100477.63;5067381;28;20090;-41
2022/08/19 02:55:08;;;;;;;9.82;2.90;;;;;;;13.74;70.83;100468.06;5061781;28;20048;-45
2022/08/19 02:57:35;;;;;;;16.65;2.78;;;;;;;13.73;71.10;100472.00;5065855;28;20110;-41
2022/08/19 03:00:07;;;;;;;20.38;3.13;;;;;;;13.69;71.30;100469.16;5062908;28;20045;-48
2022/08/19 03:02:34;;;;;;;17.50;3.08;;;;;;;13.67;71.23;100471.50;5082490;22;20460;-45
2022/08/19 03:05:03;;;;;;;18.35;2.78;;;;;;;13.67;71.33;100474.28;5044768;28;20041;-42
2022/08/19 03:07:30;;;;;;;13.48;3.35;;;;;;;13.66;71.45;100472.69;5045052;28;20044;-45
2022/08/19 03:09:57;;;;;;;17.65;3.72;;;;;;;13.64;71.42;100466.69;5045423;28;20097;-42
2022/08/19 03:12:24;;;;;;;12.75;2.78;;;;;;;13.65;71.57;100473.88;5043166;28;20425;-41
2022/08/19 03:14:51;;;;;;;19.10;4.72;;;;;;;13.64;71.75;100472.25;5044822;28;20037;-42
2022/08/19 03:17:19;;;;;;;16.60;3.47;;;;;;;13.64;71.65;100455.56;5036576;28;20065;-42
2022/08/19 03:19:46;;;;;;;11.20;2.38;;;;;;;13.62;71.83;100479.38;5042025;28;20076;-41
2022/08/19 03:22:13;;;;;;;13.65;3.05;;;;;;;13.59;71.77;100468.97;5047385;28;20482;-43
2022/08/19 03:24:40;;;;;;;19.35;4.15;;;;;;;13.56;72.07;100478.06;5021867;28;20080;-42
2022/08/19 03:27:07;;;;;;;16.75;3.35;;;;;;;13.53;72.22;100476.03;5048422;28;20433;-42
2022/08/19 03:29:37;;;;;;;14.82;2.97;;;;;;;13.51;72.35;100476.41;5048644;28;20557;-42
2022/08/19 03:32:10;;;;;;;16.70;2.38;;;;;;;13.52;72.13;100480.00;5048972;28;20124;-41
2022/08/19 03:34:57;;;;;;;8.95;2.80;;;;;;;13.49;72.19;100478.75;5045787;28;20045;-42
2022/08/19 03:37:23;;;;;;;11.57;3.03;;;;;;;13.47;72.34;100483.09;5047001;28;20087;-42
2022/08/19 03:39:51;;;;;;;15.98;2.08;;;;;;;13.44;72.34;100481.84;5046434;28;20049;-42
2022/08/19 03:42:18;;;;;;;11.45;2.90;;;;;;;13.43;72.38;100472.69;5046088;28;20445;-46
2022/08/19 03:44:59;;;;;;;16.35;2.90;;;;;;;13.42;72.59;100470.31;5048449;28;20068;-41
2022/08/19 03:47:25;;;;;;;14.27;2.40;;;;;;;13.41;72.70;100468.69;5048319;28;20053;-41
2022/08/19 03:49:52;;;;;;;13.05;2.72;;;;;;;13.40;72.91;100467.06;5048763;28;20092;-46
2022/08/19 03:52:19;;;;;;;13.07;2.10;;;;;;;13.37;72.99;100457.50;5048011;28;20041;-43
2022/08/19 03:54:46;;;;;;;11.43;1.98;;;;;;;13.36;73.05;100447.56;5034676;28;20558;-43
2022/08/19 03:57:12;;;;;;;17.42;3.28;;;;;;;13.32;73.03;100468.13;5047465;28;20073;-41
2022/08/19 03:59:39;;;;;;;12.18;2.33;;;;;;;13.34;73.20;100474.13;5032368;28;20083;-41
2022/08/19 04:02:10;;;;;;;16.02;2.10;;;;;;;13.33;73.31;100467.75;5046458;28;20060;-42
2022/08/19 04:04:39;;;;;;;8.88;1.70;;;;;;;13.36;73.38;100463.44;5045875;28;20486;-42
2022/08/19 04:07:08;;;;;;;7.35;1.75;;;;;;;13.38;73.38;100463.84;5040766;28;20767;-43
2022/08/19 04:09:36;;;;;;;11.63;2.03;;;;;;;13.38;73.65;100466.63;5043776;28;20074;-43
2022/08/19 04:12:05;;;;;;;9.88;2.35;;;;;;;13.33;73.67;100476.09;5035115;28;20056;-42
2022/08/19 04:14:34;;;;;;;13.32;2.67;;;;;;;13.30;74.12;100476.84;5045337;28;20398;-47
2022/08/19 04:17:04;;;;;;;14.15;2.03;;;;;;;13.29;74.13;100472.44;5046447;28;20049;-42
2022/08/19 04:19:34;;;;;;;10.07;2.67;;;;;;;13.27;74.22;100479.53;5047827;28;20163;-47
2022/08/19 04:22:01;;;;;;;36.40;4.30;;;;;;;13.26;74.32;100475.16;5042393;28;20434;-41
2022/08/19 04:24:28;;;;;;;10.95;2.33;;;;;;;13.24;74.31;100480.28;5045393;28;20050;-42
2022/08/19 04:26:55;;;;;;;12.30;3.28;;;;;;;13.24;74.39;100477.50;5048984;28;20072;-42
2022/08/19 04:29:24;;;;;;;11.10;1.95;;;;;;;13.23;74.55;100478.69;5045710;28;20714;-44
2022/08/19 04:31:54;;;;;;;9.60;2.38;;;;;;;13.22;74.67;100477.88;5046347;28;20419;-46
2022/08/19 04:34:23;;;;;;;13.43;2.25;;;;;;;13.21;74.79;100484.59;5042579;28;20051;-42
2022/08/19 04:36:52;;;;;;;19.17;2.40;;;;;;;13.20;74.68;100482.19;5047820;28;20045;-42
2022/08/19 04:39:23;;;;;;;10.77;2.30;;;;;;;13.20;74.70;100485.78;5045081;28;20055;-42
2022/08/19 04:44:35;;;;;;;7.80;2.35;;;;;;;13.20;74.53;100476.66;5043600;28;20084;-44
2022/08/19 04:47:12;;;;;;;10.93;2.17;;;;;;;13.17;74.57;100474.59;5045181;28;20501;-42
2022/08/19 04:49:38;;;;;;;12.73;1.73;;;;;;;13.15;74.78;100477.75;5047784;28;20045;-41
2022/08/19 04:52:05;;;;;;;9.23;3.00;;;;;;;13.13;75.04;100480.06;5043541;28;20106;-42
2022/08/19 04:54:32;;;;;;;10.43;2.15;;;;;;;13.14;74.98;100486.44;5045225;28;20103;-42
2022/08/19 04:57:06;;;;;;;9.88;1.80;;;;;;;13.12;74.84;100486.03;5048277;28;20076;-44
2022/08/19 04:59:34;;;;;;;7.90;1.45;;;;;;;13.09;75.05;100489.53;5040839;28;20504;-42
2022/08/19 05:02:03;;;;;;;20.85;3.42;;;;;;;13.08;75.16;100488.72;5046782;28;20061;-43
2022/08/19 05:04:31;;;;;;;14.93;2.10;;;;;;;13.07;75.21;100491.88;5042928;28;20737;-43
2022/08/19 05:07:00;;;;;;;11.73;2.20;;;;;;;13.07;75.41;100498.25;5047231;28;20053;-42
2022/08/19 05:09:29;;;;;;;8.43;2.78;;;;;;;13.07;75.22;100495.47;5046940;28;20052;-43
2022/08/19 05:12:17;;;;;;;12.15;1.92;;;;;;;13.07;75.36;100508.56;5047082;28;20087;-41
2022/08/19 05:14:47;;;;;;;22.60;3.22;;;;;;;13.06;75.13;100493.81;5045548;28;20494;-41
2022/08/19 05:17:14;;;;;;;15.52;2.38;;;;;;;13.08;75.17;100501.84;5043204;28;20076;-41
2022/08/19 05:22:48;;;;;;;8.43;2.22;;;;;;;13.05;75.45;100500.53;5040138;28;20045;-41
2022/08/19 05:25:18;;;;;;;8.45;2.00;;;;;;;13.06;75.26;100502.16;5043824;28;20041;-45
2022/08/19 05:27:46;;;;;;;11.00;2.38;;;;;;;13.08;75.19;100504.63;5042469;28;20556;-44
2022/08/19 05:30:13;;;;;;;6.53;1.67;;;;;;;13.07;75.63;100503.00;5043312;28;20045;-42
2022/08/19 05:32:42;;;;;;;13.48;1.98;;;;;;;13.10;75.23;100508.63;5041876;28;20164;-46
2022/08/19 05:35:09;;;;;;;10.30;2.00;;;;;;;13.10;75.29;100514.19;5046009;28;20083;-42
2022/08/19 05:37:36;;;;;;;10.88;2.30;;;;;;;13.10;75.11;100516.97;5045194;28;20136;-42
2022/08/19 05:40:04;;;;;;;6.53;1.70;;;;;;;13.11;75.13;100509.41;5044869;28;20056;-41
2022/08/19 05:42:31;;;;;;;10.65;3.53;;;;;;;13.11;75.06;100512.19;5044768;28;20047;-47
2022/08/19 05:44:58;;;;;;;9.95;2.85;;;;;;;13.11;75.31;100515.78;5044375;28;20059;-41
2022/08/19 05:47:25;;;;;;;10.48;2.53;;;;;;;13.11;75.38;100514.97;5044804;28;20048;-42
2022/08/19 05:49:52;;;;;;;8.88;1.52;;;;;;;13.14;75.16;100536.47;5026776;28;20047;-43
2022/08/19 05:52:19;;;;;;;9.63;1.52;;;;;;;13.13;75.21;100534.91;5035643;28;20083;-41
2022/08/19 05:54:54;;;;;;;12.82;2.00;;;;;;;13.15;75.28;100538.09;5045704;28;20065;-41
2022/08/19 05:57:22;;;;;;;10.50;1.75;;;;;;;13.15;75.29;100535.31;5042451;28;20088;-43
2022/08/19 05:59:51;;;;;;;11.32;1.50;;;;;;;13.17;75.57;100546.88;5045588;28;20057;-42
2022/08/19 06:02:27;;;;;;;6.68;1.52;;;;;;;13.20;75.63;100546.13;5044437;28;20057;-41
2022/08/19 06:04:54;;;;;;;12.90;1.50;;;;;;;13.22;75.50;100544.59;5027063;28;21599;-49
2022/08/19 06:07:21;;;;;;;15.80;3.65;;;;;;;13.25;75.30;100548.63;5037977;28;20041;-42
2022/08/19 06:09:48;;;;;;;9.30;3.17;;;;;;;13.24;75.64;100563.69;5044315;28;20049;-42
2022/08/19 06:12:34;;;;;;;7.53;1.58;;;;;;;13.24;75.43;100560.91;5046110;28;20123;-41
2022/08/19 06:15:11;;;;;;;13.30;1.60;;;;;;;13.27;75.68;100560.16;5028266;28;20045;-43
2022/08/19 06:17:38;;;;;;;5.75;1.02;;;;;;;13.28;75.63;100570.94;5038272;28;20088;-43
2022/08/19 06:20:08;;;;;;;11.57;1.65;;;;;;;13.29;75.53;100566.97;5046068;28;20037;-42
2022/08/19 06:22:40;;;;;;;7.60;1.45;;;;;;;13.30;75.45;100567.78;5042123;28;20037;-42
2022/08/19 06:25:09;;;;;;;5.32;1.27;;;;;;;13.33;75.58;100569.81;5040884;28;20095;-42
2022/08/19 06:27:37;;;;;;;8.35;2.08;;;;;;;13.33;75.75;100578.16;5044526;28;20565;-41
2022/08/19 06:30:23;;;;;;;7.75;1.63;;;;;;;13.37;75.76;100584.59;5031930;28;20103;-42
2022/08/19 06:32:50;;;;;;;7.93;1.35;;;;;;;13.40;75.76;100592.19;5046708;28;20486;-42
2022/08/19 06:35:18;;;;;;;7.80;1.42;;;;;;;13.45;75.57;100591.91;5045932;28;20051;-42
2022/08/19 06:37:45;;;;;;;12.10;1.83;;;;;;;13.49;75.55;100595.56;5033127;28;20440;-42
2022/08/19 06:40:12;;;;;;;5.82;1.83;;;;;;;13.50;75.47;100594.41;5038165;28;20574;-41
2022/08/19 06:42:39;;;;;;;8.85;2.17;;;;;;;13.49;75.52;100584.44;5045322;28;20494;-44
2022/08/19 06:45:21;;;;;;;10.52;1.60;;;;;;;13.50;75.48;100580.50;5046945;28;20049;-42
2022/08/19 06:48:00;;;;;;;4.68;1.35;;;;;;;13.53;75.62;100593.66;5045725;28;20494;-43
2022/08/19 06:50:29;;;;;;;7.78;1.60;;;;;;;13.59;75.85;100597.75;5046491;28;20132;-42
2022/08/19 06:52:56;;;;;;;5.88;1.15;;;;;;;13.67;75.42;100605.03;5046077;28;20045;-42
2022/08/19 06:55:30;;;;;;;7.60;1.13;;;;;;;13.74;75.58;100604.38;5048619;28;20511;-42
2022/08/19 06:58:03;;;;;;;8.25;1.25;;;;;;;13.80;75.63;100595.34;5045612;28;20134;-42
2022/08/19 07:00:30;;;;;;;7.87;1.43;;;;;;;13.83;75.20;100591.81;5047036;28;20051;-48
2022/08/19 07:03:02;;;;;;;8.15;1.35;;;;;;;13.90;75.27;100596.69;5048675;28;20131;-46
2022/08/19 07:05:43;;;;;;;7.28;1.20;;;;;;;13.96;75.05;100590.47;5032575;28;20049;-42
2022/08/19 07:08:12;;;;;;;8.05;1.70;;;;;;;14.02;75.14;100594.56;5048666;28;20049;-48
2022/08/19 07:10:43;;;;;;;8.80;1.20;;;;;;;14.09;74.78;100596.63;5050260;28;20665;-47
2022/08/19 07:13:11;;;;;;;5.53;1.33;;;;;;;14.17;74.80;100600.34;5050122;28;20071;-42
2022/08/19 07:15:38;;;;;;;11.32;1.42;;;;;;;14.25;74.64;100602.06;5051014;28;20441;-44
2022/08/19 07:18:05;;;;;;;7.15;1.58;;;;;;;14.38;74.47;100611.84;5049892;28;20045;-50
2022/08/19 07:20:32;;;;;;;4.70;1.10;;;;;;;14.61;74.19;100615.41;5050206;28;20572;-42
2022/08/19 07:23:00;;;;;;;3.55;0.88;;;;;;;14.74;73.75;100619.59;5041897;28;20041;-42
2022/08/19 07:25:32;;;;;;;4.55;1.13;;;;;;;14.78;73.44;100608.47;5048828;28;20053;-42
2022/08/19 07:27:59;;;;;;;5.97;0.98;;;;;;;14.83;73.55;100617.31;5050383;28;20581;-42
2022/08/19 07:30:27;;;;;;;7.80;1.20;;;;;;;14.89;73.47;100621.38;5050452;28;20486;-42
2022/08/19 07:32:56;;;;;;;9.95;2.75;;;;;;;15.00;73.47;100613.97;5040270;28;20131;-43
2022/08/19 07:35:24;;;;;;;3.90;1.35;;;;;;;15.12;73.29;100607.34;5040490;28;20211;-51
2022/08/19 07:37:52;;;;;;;6.35;1.30;;;;;;;15.17;73.08;100610.59;5050833;28;20053;-42
2022/08/19 07:40:19;;;;;;;7.20;1.42;;;;;;;15.22;72.77;100607.47;5043761;28;20044;-42
2022/08/19 07:42:46;;;;;;;13.27;3.60;;;;;;;15.32;72.58;100602.41;5050991;28;20136;-41
2022/08/19 07:45:15;;;;;;;7.28;1.35;;;;;;;15.37;72.45;100613.22;5049705;28;20048;-43
2022/08/19 07:47:42;;;;;;;7.10;1.50;;;;;;;15.36;72.16;100611.63;5049123;28;20041;-41
2022/08/19 07:50:19;;;;;;;2.60;1.08;;;;;;;15.42;72.07;100605.31;5045035;28;20049;-41
2022/08/19 07:52:49;;;;;;;5.85;1.10;;;;;;;15.50;71.85;100617.41;5051455;28;20045;-46
2022/08/19 07:55:19;;;;;;;5.05;1.20;;;;;;;15.57;71.58;100611.88;5050932;28;20053;-45
2022/08/19 07:58:06;;;;;;;6.38;1.13;;;;;;;15.55;71.39;100620.66;5051686;28;20439;-42
2022/08/19 08:00:33;;;;;;;8.63;1.25;;;;;;;15.56;71.40;100625.06;5050776;28;20453;-45
2022/08/19 08:03:01;;;;;;;6.43;0.73;;;;;;;15.62;71.33;100637.47;5050536;28;20543;-42
2022/08/19 08:09:10;;;;;;;3.90;1.23;;;;;;;15.77;71.16;100638.44;5034225;28;20044;-42
2022/08/19 08:11:16;;;;;;;1.83;1.02;;;;;;;15.88;71.47;100633.78;5023291;28;20049;-43
2022/08/19 08:13:48;;;;;;;2.08;0.85;;;;;;;16.06;71.90;100639.53;5015605;28;20068;-45
2022/08/19 08:16:33;;;;;;;6.95;2.00;;;;;;;16.26;71.66;100641.69;5016114;28;20048;-44
2022/08/19 08:19:00;;;;;;;8.70;1.27;;;;;;;16.49;71.54;100635.91;5015602;28;21887;-43
2022/08/19 08:21:27;;;;;;;9.40;1.10;;;;;;;16.79;71.42;100641.31;5014936;28;20045;-42
2022/08/19 08:23:55;;;;;;;5.15;0.93;;;;;;;17.07;70.63;100635.91;5015845;28;20053;-43
2022/08/19 08:26:23;;;;;;;6.70;1.20;;;;;;;17.31;69.28;100637.22;5016359;28;20495;-45
2022/08/19 08:28:49;;;;;;;5.95;0.75;;;;;;;17.46;68.26;100628.50;5015054;28;20045;-45
2022/08/19 08:31:18;;;;;;;8.63;1.35;;;;;;;17.64;67.44;100634.97;5015398;28;20067;-43
2022/08/19 08:33:46;;;;;;;7.10;1.13;;;;;;;18.08;66.98;100647.88;5015877;28;20537;-43
2022/08/19 08:36:14;;;;;;;5.80;1.35;;;;;;;18.38;65.30;100634.28;5015027;28;20191;-45
2022/08/19 08:38:45;;;;;;;3.58;0.98;;;;;;;19.15;64.76;100644.59;5014315;28;20068;-47
2022/08/19 08:41:21;;;;;;;5.25;1.15;;;;;;;19.81;62.20;100648.34;5021314;28;20045;-43
2022/08/19 08:43:51;;;;;;;11.80;1.75;;;;;;;19.95;60.14;100648.28;5048125;28;20559;-45
2022/08/19 08:46:34;;;;;;;6.95;1.08;;;;;;;19.89;59.10;100638.66;5036200;28;20052;-42
2022/08/19 08:49:08;;;;;;;5.35;1.17;;;;;;;20.03;58.31;100638.59;5037411;28;20045;-43
2022/08/19 08:51:42;;;;;;;4.93;1.15;;;;;;;20.13;57.57;100653.75;5031436;28;20114;-43
2022/08/19 08:54:17;;;;;;;5.57;1.02;;;;;;;20.09;56.96;100641.75;5048644;28;20498;-43
2022/08/19 08:56:48;;;;;;;4.85;0.90;;;;;;;20.13;56.51;100642.53;5041811;28;20041;-43
2022/08/19 08:59:40;;;;;;;5.40;1.25;;;;;;;19.88;56.10;100648.28;5013379;28;20048;-46
2022/08/19 09:02:07;;;;;;;2.50;0.93;;;;;;;20.12;55.67;100628.88;5014157;28;20048;-47
2022/08/19 09:04:35;;;;;;;6.88;1.65;;;;;;;19.93;54.63;100628.22;5013793;28;21543;-43
2022/08/19 09:07:11;;;;;;;4.38;0.80;;;;;;;19.81;55.31;100620.25;5010121;28;20119;-44
2022/08/19 09:10:29;;;;;;;8.60;0.82;;;;;;;21.00;54.51;100620.44;5012860;28;20048;-44
2022/08/19 09:13:25;;;;;;;3.92;0.90;;;;;;;21.94;52.18;100619.69;5014862;28;20063;-48
2022/08/19 09:16:06;;;;;;;4.90;1.13;;;;;;;22.47;50.64;100640.59;5005319;28;20191;-48
2022/08/19 09:18:48;;;;;;;2.67;0.70;;;;;;;23.02;49.48;100638.81;5013600;28;20106;-47
2022/08/19 09:21:15;;;;;;;3.58;0.70;;;;;;;23.53;48.76;100653.56;5014541;28;20063;-47
2022/08/19 09:23:43;;;;;;;2.85;0.60;;;;;;;23.84;47.25;100654.09;5013997;28;20200;-41
2022/08/19 09:26:13;;;;;;;2.63;0.57;;;;;;;24.27;46.42;100656.78;5013280;28;20048;-44
2022/08/19 09:28:44;;;;;;;3.70;0.77;;;;;;;24.48;45.84;100642.91;5013682;28;20126;-46
2022/08/19 09:31:18;;;;;;;5.82;0.80;;;;;;;24.09;45.47;100652.31;5012970;28;20577;-44
2022/08/19 09:33:45;;;;;;;2.80;0.68;;;;;;;23.02;46.07;100638.03;5010495;28;20513;-43
2022/08/19 09:36:15;;;;;;;5.90;0.93;;;;;;;21.99;47.66;100644.59;5013752;28;20456;-42
2022/08/19 09:39:00;;;;;;;4.80;0.85;;;;;;;21.46;48.99;100638.84;5040964;28;20037;-45
2022/08/19 09:41:28;;;;;;;2.17;0.70;;;;;;;21.61;49.47;100643.06;5041117;28;20073;-45
2022/08/19 09:43:57;;;;;;;5.18;1.13;;;;;;;21.92;49.00;100632.63;5043664;28;20072;-45
2022/08/19 09:46:28;;;;;;;5.07;0.82;;;;;;;22.21;48.28;100628.91;5045790;28;20093;-45
2022/08/19 09:48:58;;;;;;;5.55;0.85;;;;;;;22.60;47.45;100628.28;5033741;28;20184;-43
2022/08/19 09:51:33;;;;;;;6.38;1.17;;;;;;;22.26;47.37;100619.19;5036689;28;20041;-43
2022/08/19 09:54:04;;;;;;;3.10;0.77;;;;;;;21.94;48.35;100633.78;5044077;28;20049;-43
2022/08/19 09:56:33;;;;;;;9.45;1.75;;;;;;;21.49;48.59;100632.38;5033504;28;20061;-43
2022/08/19 09:59:03;;;;;;;4.40;0.98;;;;;;;20.77;49.09;100625.94;5044045;28;20056;-43
2022/08/19 10:01:31;;;;;;;5.28;1.80;;;;;;;20.09;50.49;100624.09;5043154;28;20122;-48
2022/08/19 10:04:01;;;;;;;5.22;0.90;;;;;;;19.58;51.36;100634.03;5046371;28;20049;-43
2022/08/19 10:06:41;;;;;;;8.65;1.38;;;;;;;19.21;52.11;100626.16;5046455;28;20879;-43
2022/08/19 10:09:14;;;;;;;6.20;1.40;;;;;;;18.91;52.79;100622.22;5048417;28;20423;-43
2022/08/19 10:11:43;;;;;;;4.72;1.23;;;;;;;18.68;53.59;100619.88;5045086;28;20075;-46
2022/08/19 10:14:22;;;;;;;8.13;1.25;;;;;;;18.53;53.82;100619.06;5041504;28;20457;-43
2022/08/19 10:16:51;;;;;;;4.60;1.02;;;;;;;18.45;54.52;100623.06;5042198;28;20406;-42
2022/08/19 10:19:21;;;;;;;11.38;1.65;;;;;;;18.43;54.92;100619.84;5028602;28;20577;-43
2022/08/19 10:21:53;;;;;;;6.32;1.30;;;;;;;18.38;55.04;100622.25;5047610;28;20495;-42
2022/08/19 10:24:24;;;;;;;4.75;1.35;;;;;;;18.34;55.27;100613.88;5048402;28;20502;-42
2022/08/19 10:26:50;;;;;;;6.82;0.82;;;;;;;18.28;55.34;100623.88;5023424;28;20719;-41
2022/08/19 10:29:24;;;;;;;2.63;0.80;;;;;;;18.17;55.74;100634.25;5041831;28;20052;-41
2022/08/19 10:32:03;;;;;;;6.32;1.05;;;;;;;18.06;56.18;100633.44;5050734;28;20045;-43
2022/08/19 10:34:36;;;;;;;3.90;1.55;;;;;;;17.89;57.03;100642.66;5052538;28;20037;-42
2022/08/19 10:37:16;;;;;;;4.28;1.65;;;;;;;17.66;57.91;100639.38;5048197;28;20048;-42
2022/08/19 10:39:50;;;;;;;5.00;1.70;;;;;;;17.59;58.84;100638.16;5043557;28;20053;-42
2022/08/19 10:42:19;;;;;;;5.35;0.77;;;;;;;17.63;59.04;100641.00;5032673;28;20048;-42
2022/08/19 10:44:48;;;;;;;4.22;0.68;;;;;;;17.68;59.25;100631.38;5051250;28;20044;-47
2022/08/19 10:47:18;;;;;;;4.15;0.57;;;;;;;17.75;59.11;100639.78;5045125;28;20055;-41
2022/08/19 10:52:42;;;;;;;5.28;0.98;;;;;;;17.79;58.54;100657.44;5045746;28;20048;-43
2022/08/19 10:58:14;;;;;;;6.80;1.33;;;;;;;17.83;58.38;100653.44;5050360;28;20049;-42
2022/08/19 11:00:45;;;;;;;7.60;1.50;;;;;;;17.91;58.13;100648.63;5050402;28;20087;-42
2022/08/19 11:03:12;;;;;;;7.25;2.65;;;;;;;17.98;57.82;100643.03;5051555;28;20121;-42
2022/08/19 11:05:41;;;;;;;8.20;1.70;;;;;;;18.03;57.50;100642.69;5050844;28;20115;-42
2022/08/19 11:08:11;;;;;;;9.05;1.42;;;;;;;18.13;57.65;100639.88;5049999;28;20056;-43
2022/08/19 11:10:49;;;;;;;8.05;1.55;;;;;;;18.25;57.48;100631.06;5049786;28;20091;-42
2022/08/19 11:13:16;;;;;;;6.45;1.65;;;;;;;18.62;56.55;100635.50;5046139;28;20039;-42
2022/08/19 11:15:43;;;;;;;5.03;1.20;;;;;;;19.09;55.97;100635.00;5031124;28;20044;-42
2022/08/19 11:18:11;;;;;;;5.90;1.20;;;;;;;19.26;54.96;100650.19;5050745;28;20140;-42
2022/08/19 11:20:39;;;;;;;7.97;2.13;;;;;;;19.22;54.64;100630.53;5048693;28;20045;-42
2022/08/19 11:23:06;;;;;;;8.88;1.55;;;;;;;19.21;54.45;100639.38;5046327;28;20418;-41
2022/08/19 11:25:34;;;;;;;7.63;1.65;;;;;;;19.18;54.32;100641.00;5046848;28;20080;-42
2022/08/19 11:28:01;;;;;;;6.75;1.50;;;;;;;19.12;54.24;100633.38;5050866;28;20056;-41
2022/08/19 11:30:27;;;;;;;6.10;1.33;;;;;;;19.03;53.76;100630.22;5041910;28;20052;-41
2022/08/19 11:32:54;;;;;;;11.70;1.80;;;;;;;19.06;54.14;100632.22;5051648;28;20068;-41
2022/08/19 11:35:23;;;;;;;9.32;2.67;;;;;;;19.16;53.95;100628.56;5051101;28;20131;-42
2022/08/19 11:37:50;;;;;;;4.95;1.20;;;;;;;19.22;54.29;100629.75;5048860;28;20509;-48
2022/08/19 11:40:16;;;;;;;6.00;1.48;;;;;;;19.37;53.81;100626.50;5043014;28;20540;-42
2022/08/19 11:42:56;;;;;;;8.07;1.15;;;;;;;19.53;53.99;100620.41;5049503;28;20048;-41
2022/08/19 11:45:25;;;;;;;7.18;1.33;;;;;;;19.77;54.20;100621.50;5051312;28;20067;-41
2022/08/19 11:47:52;;;;;;;3.95;1.67;;;;;;;19.89;53.48;100619.00;5042987;28;20044;-42
2022/08/19 11:50:20;;;;;;;3.45;1.52;;;;;;;19.81;53.10;100619.44;5049949;28;20513;-41
2022/08/19 11:52:49;;;;;;;7.43;1.20;;;;;;;19.73;53.19;100624.31;5047962;28;20045;-43